Doncaster, United Kingdom
Current Conditions -  °F | °C
As of 10:20 PM on Friday 19 Dec 2014 (Local Time) from EGCN Reporting Station
Clear Clear  
Wind Chill: 38°   Ceiling: Unl
Heat Index: 46°   Visibility: 6mi
Dew Point: 39°   Wind: 28mph
Humidity: 76%   Direction: 260°W
Pressure: 30"   Gusts: NA
Location:  53.52°N, 1.13°W
Report Text: EGCN 192220Z 26024KT CAVOK 08/04 Q1016
Loading
Personal Weather Stations






























Interactive Weather Map New forecast layout! Learn more

10-Day Weather Forecast

Advertisements
Track Severe Weather on mobile